sensor_id;sensor_type;location;lat;lon;timestamp;P1;durP1;ratioP1;P2;durP2;ratioP2
39518;SDS011;25200;53.394;10.414;2024-03-06T00:02:09;12.95;;;6.43;;
39518;SDS011;25200;53.394;10.414;2024-03-06T00:04:35;13.05;;;7.03;;
39518;SDS011;25200;53.394;10.414;2024-03-06T00:07:01;13.07;;;6.47;;
39518;SDS011;25200;53.394;10.414;2024-03-06T00:09:27;13.77;;;6.75;;
39518;SDS011;25200;53.394;10.414;2024-03-06T00:11:53;12.65;;;6.70;;
39518;SDS011;25200;53.394;10.414;2024-03-06T00:14:19;13.77;;;6.50;;
39518;SDS011;25200;53.394;10.414;2024-03-06T00:16:49;13.73;;;6.30;;
39518;SDS011;25200;53.394;10.414;2024-03-06T00:19:16;14.40;;;6.68;;
39518;SDS011;25200;53.394;10.414;2024-03-06T00:21:45;13.85;;;6.82;;
39518;SDS011;25200;53.394;10.414;2024-03-06T00:24:12;14.15;;;6.95;;
39518;SDS011;25200;53.394;10.414;2024-03-06T00:26:39;11.88;;;6.32;;
39518;SDS011;25200;53.394;10.414;2024-03-06T00:29:06;12.73;;;6.68;;
39518;SDS011;25200;53.394;10.414;2024-03-06T00:31:31;14.30;;;6.40;;
39518;SDS011;25200;53.394;10.414;2024-03-06T00:33:57;14.73;;;6.65;;
39518;SDS011;25200;53.394;10.414;2024-03-06T00:36:23;15.63;;;7.28;;
39518;SDS011;25200;53.394;10.414;2024-03-06T00:38:49;11.88;;;6.68;;
39518;SDS011;25200;53.394;10.414;2024-03-06T00:41:15;15.07;;;6.78;;
39518;SDS011;25200;53.394;10.414;2024-03-06T00:43:40;14.07;;;6.68;;
39518;SDS011;25200;53.394;10.414;2024-03-06T00:46:06;14.73;;;6.65;;
39518;SDS011;25200;53.394;10.414;2024-03-06T00:48:32;13.70;;;6.60;;
39518;SDS011;25200;53.394;10.414;2024-03-06T00:50:57;12.70;;;6.38;;
39518;SDS011;25200;53.394;10.414;2024-03-06T00:53:23;12.40;;;6.28;;
39518;SDS011;25200;53.394;10.414;2024-03-06T00:55:49;11.90;;;6.22;;
39518;SDS011;25200;53.394;10.414;2024-03-06T00:58:15;12.48;;;5.90;;
39518;SDS011;25200;53.394;10.414;2024-03-06T01:00:40;12.63;;;6.65;;
39518;SDS011;25200;53.394;10.414;2024-03-06T01:03:06;12.98;;;6.57;;
39518;SDS011;25200;53.394;10.414;2024-03-06T01:05:31;14.70;;;6.60;;
39518;SDS011;25200;53.394;10.414;2024-03-06T01:07:57;13.27;;;6.40;;
39518;SDS011;25200;53.394;10.414;2024-03-06T01:10:24;12.90;;;6.05;;
39518;SDS011;25200;53.394;10.414;2024-03-06T01:12:49;13.02;;;6.03;;
39518;SDS011;25200;53.394;10.414;2024-03-06T01:15:15;10.35;;;5.85;;
39518;SDS011;25200;53.394;10.414;2024-03-06T01:17:41;12.63;;;6.18;;
39518;SDS011;25200;53.394;10.414;2024-03-06T01:20:06;14.43;;;5.82;;
39518;SDS011;25200;53.394;10.414;2024-03-06T01:22:33;14.68;;;5.97;;
39518;SDS011;25200;53.394;10.414;2024-03-06T01:25:00;10.98;;;5.93;;
39518;SDS011;25200;53.394;10.414;2024-03-06T01:27:26;12.70;;;5.72;;
39518;SDS011;25200;53.394;10.414;2024-03-06T01:29:52;11.68;;;5.47;;
39518;SDS011;25200;53.394;10.414;2024-03-06T01:32:18;12.40;;;6.22;;
39518;SDS011;25200;53.394;10.414;2024-03-06T01:34:44;15.98;;;6.03;;
39518;SDS011;25200;53.394;10.414;2024-03-06T01:37:10;12.00;;;6.00;;
39518;SDS011;25200;53.394;10.414;2024-03-06T01:39:35;12.60;;;6.32;;
39518;SDS011;25200;53.394;10.414;2024-03-06T01:42:01;13.10;;;6.18;;
39518;SDS011;25200;53.394;10.414;2024-03-06T01:44:28;12.02;;;5.82;;
39518;SDS011;25200;53.394;10.414;2024-03-06T01:46:54;11.07;;;6.00;;
39518;SDS011;25200;53.394;10.414;2024-03-06T01:49:19;13.27;;;6.13;;
39518;SDS011;25200;53.394;10.414;2024-03-06T01:51:48;10.60;;;5.63;;
39518;SDS011;25200;53.394;10.414;2024-03-06T01:54:16;11.40;;;5.68;;
39518;SDS011;25200;53.394;10.414;2024-03-06T01:56:44;16.67;;;6.35;;
39518;SDS011;25200;53.394;10.414;2024-03-06T01:59:15;14.93;;;6.05;;
39518;SDS011;25200;53.394;10.414;2024-03-06T02:01:42;13.32;;;6.32;;
39518;SDS011;25200;53.394;10.414;2024-03-06T02:04:08;10.20;;;5.78;;
39518;SDS011;25200;53.394;10.414;2024-03-06T02:06:40;10.80;;;5.53;;
39518;SDS011;25200;53.394;10.414;2024-03-06T02:09:06;12.30;;;6.25;;
39518;SDS011;25200;53.394;10.414;2024-03-06T02:11:32;12.18;;;6.28;;
39518;SDS011;25200;53.394;10.414;2024-03-06T02:13:58;10.48;;;5.45;;
39518;SDS011;25200;53.394;10.414;2024-03-06T02:16:24;12.07;;;5.78;;
39518;SDS011;25200;53.394;10.414;2024-03-06T02:18:54;11.68;;;5.90;;
39518;SDS011;25200;53.394;10.414;2024-03-06T02:21:20;10.57;;;6.00;;
39518;SDS011;25200;53.394;10.414;2024-03-06T02:23:47;12.05;;;5.53;;
39518;SDS011;25200;53.394;10.414;2024-03-06T02:26:12;10.98;;;5.70;;
39518;SDS011;25200;53.394;10.414;2024-03-06T02:28:38;11.18;;;5.90;;
39518;SDS011;25200;53.394;10.414;2024-03-06T02:31:03;11.18;;;5.95;;
39518;SDS011;25200;53.394;10.414;2024-03-06T02:33:31;11.38;;;6.18;;
39518;SDS011;25200;53.394;10.414;2024-03-06T02:35:59;13.50;;;6.20;;
39518;SDS011;25200;53.394;10.414;2024-03-06T02:38:24;13.35;;;6.05;;
39518;SDS011;25200;53.394;10.414;2024-03-06T02:40:50;11.73;;;6.25;;
39518;SDS011;25200;53.394;10.414;2024-03-06T02:43:16;12.98;;;6.10;;
39518;SDS011;25200;53.394;10.414;2024-03-06T02:45:42;10.05;;;5.60;;
39518;SDS011;25200;53.394;10.414;2024-03-06T02:48:07;12.48;;;5.95;;
39518;SDS011;25200;53.394;10.414;2024-03-06T02:50:33;12.73;;;6.30;;
39518;SDS011;25200;53.394;10.414;2024-03-06T02:52:59;11.18;;;5.43;;
39518;SDS011;25200;53.394;10.414;2024-03-06T02:55:24;13.20;;;6.20;;
39518;SDS011;25200;53.394;10.414;2024-03-06T02:57:50;12.25;;;6.07;;
39518;SDS011;25200;53.394;10.414;2024-03-06T03:00:16;11.18;;;5.10;;
39518;SDS011;25200;53.394;10.414;2024-03-06T03:02:41;10.77;;;5.40;;
39518;SDS011;25200;53.394;10.414;2024-03-06T03:05:08;12.05;;;5.65;;
39518;SDS011;25200;53.394;10.414;2024-03-06T03:07:34;10.30;;;5.40;;
39518;SDS011;25200;53.394;10.414;2024-03-06T03:09:59;10.65;;;5.22;;
39518;SDS011;25200;53.394;10.414;2024-03-06T03:12:25;10.43;;;5.07;;
39518;SDS011;25200;53.394;10.414;2024-03-06T03:14:50;12.00;;;5.50;;
39518;SDS011;25200;53.394;10.414;2024-03-06T03:17:17;11.85;;;5.95;;
39518;SDS011;25200;53.394;10.414;2024-03-06T03:19:44;9.32;;;5.13;;
39518;SDS011;25200;53.394;10.414;2024-03-06T03:22:10;11.35;;;5.50;;
39518;SDS011;25200;53.394;10.414;2024-03-06T03:24:35;11.27;;;6.13;;
39518;SDS011;25200;53.394;10.414;2024-03-06T03:27:02;11.25;;;5.28;;
39518;SDS011;25200;53.394;10.414;2024-03-06T03:29:27;9.93;;;5.43;;
39518;SDS011;25200;53.394;10.414;2024-03-06T03:31:54;10.02;;;5.63;;
39518;SDS011;25200;53.394;10.414;2024-03-06T03:34:20;12.55;;;5.30;;
39518;SDS011;25200;53.394;10.414;2024-03-06T03:36:46;9.25;;;4.95;;
39518;SDS011;25200;53.394;10.414;2024-03-06T03:39:12;11.93;;;5.80;;
39518;SDS011;25200;53.394;10.414;2024-03-06T03:41:44;10.95;;;5.63;;
39518;SDS011;25200;53.394;10.414;2024-03-06T03:44:11;10.75;;;5.47;;
39518;SDS011;25200;53.394;10.414;2024-03-06T03:46:40;14.38;;;5.22;;
39518;SDS011;25200;53.394;10.414;2024-03-06T03:49:05;11.15;;;5.45;;
39518;SDS011;25200;53.394;10.414;2024-03-06T03:51:31;10.15;;;5.05;;
39518;SDS011;25200;53.394;10.414;2024-03-06T03:53:57;10.63;;;5.20;;
39518;SDS011;25200;53.394;10.414;2024-03-06T03:56:22;9.32;;;4.88;;
39518;SDS011;25200;53.394;10.414;2024-03-06T03:58:48;14.02;;;5.70;;
39518;SDS011;25200;53.394;10.414;2024-03-06T04:01:13;12.02;;;5.32;;
39518;SDS011;25200;53.394;10.414;2024-03-06T04:03:39;10.40;;;5.10;;
39518;SDS011;25200;53.394;10.414;2024-03-06T04:06:05;11.85;;;5.57;;
39518;SDS011;25200;53.394;10.414;2024-03-06T04:08:32;11.18;;;4.65;;
39518;SDS011;25200;53.394;10.414;2024-03-06T04:10:57;8.93;;;4.95;;
39518;SDS011;25200;53.394;10.414;2024-03-06T04:13:23;10.93;;;5.03;;
39518;SDS011;25200;53.394;10.414;2024-03-06T04:15:49;8.95;;;5.35;;
39518;SDS011;25200;53.394;10.414;2024-03-06T04:18:14;9.50;;;4.57;;
39518;SDS011;25200;53.394;10.414;2024-03-06T04:20:40;11.00;;;5.82;;
39518;SDS011;25200;53.394;10.414;2024-03-06T04:23:05;9.48;;;4.75;;
39518;SDS011;25200;53.394;10.414;2024-03-06T04:25:31;10.57;;;5.03;;
39518;SDS011;25200;53.394;10.414;2024-03-06T04:27:56;10.38;;;4.93;;
39518;SDS011;25200;53.394;10.414;2024-03-06T04:30:22;14.20;;;5.55;;
39518;SDS011;25200;53.394;10.414;2024-03-06T04:32:48;11.95;;;5.00;;
39518;SDS011;25200;53.394;10.414;2024-03-06T04:35:13;11.45;;;5.30;;
39518;SDS011;25200;53.394;10.414;2024-03-06T04:37:40;11.32;;;5.40;;
39518;SDS011;25200;53.394;10.414;2024-03-06T04:40:05;9.93;;;4.97;;
39518;SDS011;25200;53.394;10.414;2024-03-06T04:42:35;11.13;;;4.93;;
39518;SDS011;25200;53.394;10.414;2024-03-06T04:45:01;9.48;;;5.20;;
39518;SDS011;25200;53.394;10.414;2024-03-06T04:47:40;10.73;;;4.88;;
39518;SDS011;25200;53.394;10.414;2024-03-06T04:50:08;10.82;;;4.72;;
39518;SDS011;25200;53.394;10.414;2024-03-06T04:52:37;9.15;;;4.95;;
39518;SDS011;25200;53.394;10.414;2024-03-06T04:55:03;9.10;;;4.97;;
39518;SDS011;25200;53.394;10.414;2024-03-06T04:57:29;10.25;;;4.72;;
39518;SDS011;25200;53.394;10.414;2024-03-06T04:59:55;9.90;;;4.55;;
39518;SDS011;25200;53.394;10.414;2024-03-06T05:02:21;10.80;;;5.13;;
39518;SDS011;25200;53.394;10.414;2024-03-06T05:04:47;8.48;;;4.78;;
39518;SDS011;25200;53.394;10.414;2024-03-06T05:07:13;9.98;;;5.28;;
39518;SDS011;25200;53.394;10.414;2024-03-06T05:09:38;9.20;;;4.72;;
39518;SDS011;25200;53.394;10.414;2024-03-06T05:12:06;10.75;;;5.15;;
39518;SDS011;25200;53.394;10.414;2024-03-06T05:14:32;9.82;;;5.07;;
39518;SDS011;25200;53.394;10.414;2024-03-06T05:16:58;7.88;;;4.47;;
39518;SDS011;25200;53.394;10.414;2024-03-06T05:19:23;8.20;;;4.28;;
39518;SDS011;25200;53.394;10.414;2024-03-06T05:21:56;9.50;;;4.45;;
39518;SDS011;25200;53.394;10.414;2024-03-06T05:24:25;10.95;;;5.20;;
39518;SDS011;25200;53.394;10.414;2024-03-06T05:26:50;9.55;;;5.20;;
39518;SDS011;25200;53.394;10.414;2024-03-06T05:29:16;10.68;;;4.80;;
39518;SDS011;25200;53.394;10.414;2024-03-06T05:31:41;9.18;;;5.07;;
39518;SDS011;25200;53.394;10.414;2024-03-06T05:34:07;10.35;;;5.45;;
39518;SDS011;25200;53.394;10.414;2024-03-06T05:36:33;8.68;;;4.28;;
39518;SDS011;25200;53.394;10.414;2024-03-06T05:38:59;8.63;;;4.43;;
39518;SDS011;25200;53.394;10.414;2024-03-06T05:41:25;10.20;;;4.88;;
39518;SDS011;25200;53.394;10.414;2024-03-06T05:43:50;9.88;;;4.53;;
39518;SDS011;25200;53.394;10.414;2024-03-06T05:46:16;8.50;;;4.32;;
39518;SDS011;25200;53.394;10.414;2024-03-06T05:48:42;10.15;;;4.40;;
39518;SDS011;25200;53.394;10.414;2024-03-06T05:51:07;9.15;;;4.75;;
39518;SDS011;25200;53.394;10.414;2024-03-06T05:53:36;11.27;;;5.03;;
39518;SDS011;25200;53.394;10.414;2024-03-06T05:56:04;8.05;;;4.22;;
39518;SDS011;25200;53.394;10.414;2024-03-06T05:58:31;11.02;;;4.68;;
39518;SDS011;25200;53.394;10.414;2024-03-06T06:00:56;9.75;;;4.55;;
39518;SDS011;25200;53.394;10.414;2024-03-06T06:03:22;10.48;;;5.25;;
39518;SDS011;25200;53.394;10.414;2024-03-06T06:05:47;10.10;;;4.68;;
39518;SDS011;25200;53.394;10.414;2024-03-06T06:08:13;8.80;;;4.57;;
39518;SDS011;25200;53.394;10.414;2024-03-06T06:10:38;8.32;;;4.45;;
39518;SDS011;25200;53.394;10.414;2024-03-06T06:13:04;10.27;;;4.63;;
39518;SDS011;25200;53.394;10.414;2024-03-06T06:15:30;7.45;;;4.30;;
39518;SDS011;25200;53.394;10.414;2024-03-06T06:17:55;11.43;;;4.82;;
39518;SDS011;25200;53.394;10.414;2024-03-06T06:20:21;9.95;;;4.95;;
39518;SDS011;25200;53.394;10.414;2024-03-06T06:22:47;10.23;;;4.35;;
39518;SDS011;25200;53.394;10.414;2024-03-06T06:25:12;11.77;;;4.53;;
39518;SDS011;25200;53.394;10.414;2024-03-06T06:27:38;10.85;;;4.72;;
39518;SDS011;25200;53.394;10.414;2024-03-06T06:30:04;8.00;;;4.60;;
39518;SDS011;25200;53.394;10.414;2024-03-06T06:32:30;8.85;;;4.60;;
39518;SDS011;25200;53.394;10.414;2024-03-06T06:34:56;8.38;;;4.40;;
39518;SDS011;25200;53.394;10.414;2024-03-06T06:37:22;9.82;;;4.45;;
39518;SDS011;25200;53.394;10.414;2024-03-06T06:39:48;10.25;;;4.80;;
39518;SDS011;25200;53.394;10.414;2024-03-06T06:42:14;11.88;;;4.50;;
39518;SDS011;25200;53.394;10.414;2024-03-06T06:44:39;8.40;;;4.78;;
39518;SDS011;25200;53.394;10.414;2024-03-06T06:47:06;9.73;;;4.68;;
39518;SDS011;25200;53.394;10.414;2024-03-06T06:49:32;10.18;;;4.90;;
39518;SDS011;25200;53.394;10.414;2024-03-06T06:51:59;9.85;;;4.53;;
39518;SDS011;25200;53.394;10.414;2024-03-06T06:54:24;13.32;;;5.30;;
39518;SDS011;25200;53.394;10.414;2024-03-06T06:56:50;9.00;;;5.13;;
39518;SDS011;25200;53.394;10.414;2024-03-06T06:59:15;9.68;;;5.13;;
39518;SDS011;25200;53.394;10.414;2024-03-06T07:01:41;8.38;;;4.47;;
39518;SDS011;25200;53.394;10.414;2024-03-06T07:04:08;9.65;;;5.13;;
39518;SDS011;25200;53.394;10.414;2024-03-06T07:06:33;10.10;;;4.85;;
39518;SDS011;25200;53.394;10.414;2024-03-06T07:08:59;11.23;;;4.50;;
39518;SDS011;25200;53.394;10.414;2024-03-06T07:11:24;10.45;;;5.50;;
39518;SDS011;25200;53.394;10.414;2024-03-06T07:13:50;10.63;;;4.72;;
39518;SDS011;25200;53.394;10.414;2024-03-06T07:16:16;10.98;;;4.88;;
39518;SDS011;25200;53.394;10.414;2024-03-06T07:18:41;11.43;;;4.93;;
39518;SDS011;25200;53.394;10.414;2024-03-06T07:21:07;9.50;;;5.20;;
39518;SDS011;25200;53.394;10.414;2024-03-06T07:23:33;10.80;;;4.93;;
39518;SDS011;25200;53.394;10.414;2024-03-06T07:25:58;8.60;;;4.78;;
39518;SDS011;25200;53.394;10.414;2024-03-06T07:28:24;7.28;;;4.15;;
39518;SDS011;25200;53.394;10.414;2024-03-06T07:30:50;10.35;;;4.97;;
39518;SDS011;25200;53.394;10.414;2024-03-06T07:33:16;8.98;;;4.63;;
39518;SDS011;25200;53.394;10.414;2024-03-06T07:35:42;9.40;;;4.45;;
39518;SDS011;25200;53.394;10.414;2024-03-06T07:38:07;9.82;;;4.40;;
39518;SDS011;25200;53.394;10.414;2024-03-06T07:40:33;11.07;;;4.85;;
39518;SDS011;25200;53.394;10.414;2024-03-06T07:42:59;8.13;;;4.72;;
39518;SDS011;25200;53.394;10.414;2024-03-06T07:45:25;10.05;;;5.30;;
39518;SDS011;25200;53.394;10.414;2024-03-06T07:47:51;11.38;;;5.05;;
39518;SDS011;25200;53.394;10.414;2024-03-06T07:50:17;8.93;;;4.57;;
39518;SDS011;25200;53.394;10.414;2024-03-06T07:52:44;9.32;;;5.00;;
39518;SDS011;25200;53.394;10.414;2024-03-06T07:55:11;10.73;;;5.28;;
39518;SDS011;25200;53.394;10.414;2024-03-06T07:57:36;10.32;;;5.20;;
39518;SDS011;25200;53.394;10.414;2024-03-06T08:00:03;10.15;;;5.55;;
39518;SDS011;25200;53.394;10.414;2024-03-06T08:02:39;11.27;;;5.57;;
39518;SDS011;25200;53.394;10.414;2024-03-06T08:05:15;9.95;;;5.05;;
39518;SDS011;25200;53.394;10.414;2024-03-06T08:07:41;11.45;;;5.55;;
39518;SDS011;25200;53.394;10.414;2024-03-06T08:10:11;10.30;;;5.50;;
39518;SDS011;25200;53.394;10.414;2024-03-06T08:12:42;9.43;;;4.70;;
39518;SDS011;25200;53.394;10.414;2024-03-06T08:15:12;11.30;;;5.97;;
39518;SDS011;25200;53.394;10.414;2024-03-06T08:17:40;9.18;;;5.03;;
39518;SDS011;25200;53.394;10.414;2024-03-06T08:20:08;10.98;;;5.88;;
39518;SDS011;25200;53.394;10.414;2024-03-06T08:22:35;9.38;;;5.25;;
39518;SDS011;25200;53.394;10.414;2024-03-06T08:27:30;11.25;;;6.45;;
39518;SDS011;25200;53.394;10.414;2024-03-06T08:29:55;13.43;;;6.60;;
39518;SDS011;25200;53.394;10.414;2024-03-06T08:32:21;15.63;;;6.63;;
39518;SDS011;25200;53.394;10.414;2024-03-06T08:34:46;11.88;;;5.82;;
39518;SDS011;25200;53.394;10.414;2024-03-06T08:37:12;13.48;;;6.43;;
39518;SDS011;25200;53.394;10.414;2024-03-06T08:39:38;13.25;;;6.80;;
39518;SDS011;25200;53.394;10.414;2024-03-06T08:42:04;12.43;;;6.57;;
39518;SDS011;25200;53.394;10.414;2024-03-06T08:44:30;12.23;;;7.07;;
39518;SDS011;25200;53.394;10.414;2024-03-06T08:46:55;15.95;;;8.10;;
39518;SDS011;25200;53.394;10.414;2024-03-06T08:49:21;13.02;;;6.85;;
39518;SDS011;25200;53.394;10.414;2024-03-06T08:51:47;14.27;;;7.32;;
39518;SDS011;25200;53.394;10.414;2024-03-06T08:54:12;11.77;;;6.47;;
39518;SDS011;25200;53.394;10.414;2024-03-06T08:56:38;14.13;;;7.85;;
39518;SDS011;25200;53.394;10.414;2024-03-06T08:59:03;13.52;;;7.32;;
39518;SDS011;25200;53.394;10.414;2024-03-06T09:01:29;12.13;;;6.85;;
39518;SDS011;25200;53.394;10.414;2024-03-06T09:03:54;11.80;;;6.75;;
39518;SDS011;25200;53.394;10.414;2024-03-06T09:06:22;12.10;;;6.70;;
39518;SDS011;25200;53.394;10.414;2024-03-06T09:08:48;11.60;;;6.63;;
39518;SDS011;25200;53.394;10.414;2024-03-06T09:11:13;14.57;;;7.20;;
39518;SDS011;25200;53.394;10.414;2024-03-06T09:13:39;12.40;;;6.65;;
39518;SDS011;25200;53.394;10.414;2024-03-06T09:16:04;14.63;;;7.00;;
39518;SDS011;25200;53.394;10.414;2024-03-06T09:18:30;12.55;;;6.88;;
39518;SDS011;25200;53.394;10.414;2024-03-06T09:20:56;13.02;;;6.95;;
39518;SDS011;25200;53.394;10.414;2024-03-06T09:23:21;16.13;;;7.57;;
39518;SDS011;25200;53.394;10.414;2024-03-06T09:25:47;13.18;;;7.20;;
39518;SDS011;25200;53.394;10.414;2024-03-06T09:28:13;12.55;;;6.97;;
39518;SDS011;25200;53.394;10.414;2024-03-06T09:30:39;14.55;;;7.55;;
39518;SDS011;25200;53.394;10.414;2024-03-06T09:33:04;13.90;;;7.13;;
39518;SDS011;25200;53.394;10.414;2024-03-06T09:35:30;14.13;;;7.18;;
39518;SDS011;25200;53.394;10.414;2024-03-06T09:37:57;13.70;;;6.90;;
39518;SDS011;25200;53.394;10.414;2024-03-06T09:40:23;21.02;;;10.65;;
39518;SDS011;25200;53.394;10.414;2024-03-06T09:42:49;15.52;;;8.30;;
39518;SDS011;25200;53.394;10.414;2024-03-06T09:45:16;13.80;;;6.80;;
39518;SDS011;25200;53.394;10.414;2024-03-06T09:47:42;12.43;;;6.70;;
39518;SDS011;25200;53.394;10.414;2024-03-06T09:50:08;11.98;;;6.80;;
39518;SDS011;25200;53.394;10.414;2024-03-06T09:52:34;14.95;;;6.35;;
39518;SDS011;25200;53.394;10.414;2024-03-06T09:55:01;10.77;;;6.70;;
39518;SDS011;25200;53.394;10.414;2024-03-06T09:57:28;13.95;;;7.00;;
39518;SDS011;25200;53.394;10.414;2024-03-06T09:59:55;11.65;;;6.07;;
39518;SDS011;25200;53.394;10.414;2024-03-06T10:04:55;12.32;;;5.65;;
39518;SDS011;25200;53.394;10.414;2024-03-06T10:07:22;13.60;;;6.18;;
39518;SDS011;25200;53.394;10.414;2024-03-06T10:09:47;12.98;;;6.30;;
39518;SDS011;25200;53.394;10.414;2024-03-06T10:12:16;12.23;;;6.00;;
39518;SDS011;25200;53.394;10.414;2024-03-06T10:14:50;13.38;;;6.20;;
39518;SDS011;25200;53.394;10.414;2024-03-06T10:17:19;11.77;;;6.35;;
39518;SDS011;25200;53.394;10.414;2024-03-06T10:19:51;13.82;;;6.43;;
39518;SDS011;25200;53.394;10.414;2024-03-06T10:22:18;12.23;;;6.18;;
39518;SDS011;25200;53.394;10.414;2024-03-06T10:24:44;12.13;;;6.05;;
39518;SDS011;25200;53.394;10.414;2024-03-06T10:27:14;10.98;;;6.32;;
39518;SDS011;25200;53.394;10.414;2024-03-06T10:29:42;17.25;;;7.50;;
39518;SDS011;25200;53.394;10.414;2024-03-06T10:32:08;21.30;;;9.13;;
39518;SDS011;25200;53.394;10.414;2024-03-06T10:34:35;19.75;;;9.55;;
39518;SDS011;25200;53.394;10.414;2024-03-06T10:37:02;14.25;;;7.93;;
39518;SDS011;25200;53.394;10.414;2024-03-06T10:39:34;13.80;;;6.47;;
39518;SDS011;25200;53.394;10.414;2024-03-06T10:42:01;13.38;;;6.78;;
39518;SDS011;25200;53.394;10.414;2024-03-06T10:44:30;14.00;;;7.20;;
39518;SDS011;25200;53.394;10.414;2024-03-06T10:46:59;12.50;;;7.18;;
39518;SDS011;25200;53.394;10.414;2024-03-06T10:49:30;12.40;;;6.68;;
39518;SDS011;25200;53.394;10.414;2024-03-06T10:51:57;11.55;;;6.10;;
39518;SDS011;25200;53.394;10.414;2024-03-06T10:54:26;12.40;;;6.90;;
39518;SDS011;25200;53.394;10.414;2024-03-06T10:56:54;10.82;;;6.18;;
39518;SDS011;25200;53.394;10.414;2024-03-06T10:59:20;13.57;;;6.38;;
39518;SDS011;25200;53.394;10.414;2024-03-06T11:01:49;12.70;;;6.60;;
39518;SDS011;25200;53.394;10.414;2024-03-06T11:04:16;11.77;;;7.10;;
39518;SDS011;25200;53.394;10.414;2024-03-06T11:06:42;12.23;;;7.38;;
39518;SDS011;25200;53.394;10.414;2024-03-06T11:09:08;11.90;;;6.88;;
39518;SDS011;25200;53.394;10.414;2024-03-06T11:11:52;13.32;;;7.28;;
39518;SDS011;25200;53.394;10.414;2024-03-06T11:14:22;16.98;;;8.73;;
39518;SDS011;25200;53.394;10.414;2024-03-06T11:17:31;14.93;;;8.57;;
39518;SDS011;25200;53.394;10.414;2024-03-06T11:28:34;10.88;;;6.22;;
39518;SDS011;25200;53.394;10.414;2024-03-06T11:33:34;13.05;;;7.15;;
39518;SDS011;25200;53.394;10.414;2024-03-06T11:36:14;11.80;;;6.32;;
39518;SDS011;25200;53.394;10.414;2024-03-06T11:38:51;10.63;;;6.13;;
39518;SDS011;25200;53.394;10.414;2024-03-06T11:41:28;11.48;;;7.13;;
39518;SDS011;25200;53.394;10.414;2024-03-06T11:43:55;11.32;;;6.32;;
39518;SDS011;25200;53.394;10.414;2024-03-06T11:46:22;10.95;;;5.72;;
39518;SDS011;25200;53.394;10.414;2024-03-06T11:49:04;10.68;;;5.53;;
39518;SDS011;25200;53.394;10.414;2024-03-06T11:51:47;9.95;;;5.55;;
39518;SDS011;25200;53.394;10.414;2024-03-06T11:54:13;10.77;;;5.75;;
39518;SDS011;25200;53.394;10.414;2024-03-06T11:56:43;10.98;;;5.97;;
39518;SDS011;25200;53.394;10.414;2024-03-06T11:59:12;9.30;;;5.90;;
39518;SDS011;25200;53.394;10.414;2024-03-06T12:01:37;10.50;;;6.30;;
39518;SDS011;25200;53.394;10.414;2024-03-06T12:04:03;11.02;;;6.38;;
39518;SDS011;25200;53.394;10.414;2024-03-06T12:06:30;10.02;;;5.40;;
39518;SDS011;25200;53.394;10.414;2024-03-06T12:08:57;9.48;;;5.38;;
39518;SDS011;25200;53.394;10.414;2024-03-06T12:11:23;11.35;;;5.85;;
39518;SDS011;25200;53.394;10.414;2024-03-06T12:13:51;9.18;;;5.28;;
39518;SDS011;25200;53.394;10.414;2024-03-06T12:16:17;10.75;;;5.75;;
39518;SDS011;25200;53.394;10.414;2024-03-06T12:18:42;11.32;;;5.93;;
39518;SDS011;25200;53.394;10.414;2024-03-06T12:21:10;10.60;;;5.57;;
39518;SDS011;25200;53.394;10.414;2024-03-06T12:23:36;9.68;;;5.28;;
39518;SDS011;25200;53.394;10.414;2024-03-06T12:26:05;12.38;;;5.85;;
39518;SDS011;25200;53.394;10.414;2024-03-06T12:28:34;11.38;;;6.82;;
39518;SDS011;25200;53.394;10.414;2024-03-06T12:31:01;14.70;;;6.03;;
39518;SDS011;25200;53.394;10.414;2024-03-06T12:33:28;9.98;;;6.07;;
39518;SDS011;25200;53.394;10.414;2024-03-06T12:36:01;9.90;;;5.45;;
39518;SDS011;25200;53.394;10.414;2024-03-06T12:38:31;11.60;;;6.15;;
39518;SDS011;25200;53.394;10.414;2024-03-06T12:40:57;10.98;;;5.63;;
39518;SDS011;25200;53.394;10.414;2024-03-06T12:43:24;10.65;;;6.40;;
39518;SDS011;25200;53.394;10.414;2024-03-06T12:45:50;15.27;;;6.05;;
39518;SDS011;25200;53.394;10.414;2024-03-06T12:48:19;11.75;;;6.63;;
39518;SDS011;25200;53.394;10.414;2024-03-06T12:50:48;10.43;;;5.97;;
39518;SDS011;25200;53.394;10.414;2024-03-06T12:53:22;9.57;;;5.97;;
39518;SDS011;25200;53.394;10.414;2024-03-06T12:55:48;9.88;;;6.30;;
39518;SDS011;25200;53.394;10.414;2024-03-06T12:58:14;10.05;;;5.50;;
39518;SDS011;25200;53.394;10.414;2024-03-06T13:00:40;13.23;;;6.25;;
39518;SDS011;25200;53.394;10.414;2024-03-06T13:03:05;11.32;;;6.18;;
39518;SDS011;25200;53.394;10.414;2024-03-06T13:05:32;10.20;;;5.43;;
39518;SDS011;25200;53.394;10.414;2024-03-06T13:07:58;10.02;;;5.60;;
39518;SDS011;25200;53.394;10.414;2024-03-06T13:10:26;12.65;;;5.97;;
39518;SDS011;25200;53.394;10.414;2024-03-06T13:12:52;13.52;;;6.28;;
39518;SDS011;25200;53.394;10.414;2024-03-06T13:15:17;11.77;;;5.65;;
39518;SDS011;25200;53.394;10.414;2024-03-06T13:17:43;10.57;;;5.40;;
39518;SDS011;25200;53.394;10.414;2024-03-06T13:20:09;10.13;;;5.65;;
39518;SDS011;25200;53.394;10.414;2024-03-06T13:22:36;10.95;;;6.20;;
39518;SDS011;25200;53.394;10.414;2024-03-06T13:25:02;12.75;;;6.03;;
39518;SDS011;25200;53.394;10.414;2024-03-06T13:27:29;12.88;;;6.43;;
39518;SDS011;25200;53.394;10.414;2024-03-06T13:29:54;13.25;;;5.82;;
39518;SDS011;25200;53.394;10.414;2024-03-06T13:32:20;9.65;;;5.30;;
39518;SDS011;25200;53.394;10.414;2024-03-06T13:34:45;10.40;;;5.93;;
39518;SDS011;25200;53.394;10.414;2024-03-06T13:37:11;9.98;;;5.75;;
39518;SDS011;25200;53.394;10.414;2024-03-06T13:39:37;9.25;;;5.78;;
39518;SDS011;25200;53.394;10.414;2024-03-06T13:42:04;10.15;;;5.50;;
39518;SDS011;25200;53.394;10.414;2024-03-06T13:44:31;10.45;;;5.40;;
39518;SDS011;25200;53.394;10.414;2024-03-06T13:46:56;10.70;;;6.00;;
39518;SDS011;25200;53.394;10.414;2024-03-06T13:49:33;8.95;;;5.47;;
39518;SDS011;25200;53.394;10.414;2024-03-06T13:52:04;11.73;;;5.65;;
39518;SDS011;25200;53.394;10.414;2024-03-06T13:54:34;10.63;;;5.53;;
39518;SDS011;25200;53.394;10.414;2024-03-06T13:57:00;10.82;;;6.53;;
39518;SDS011;25200;53.394;10.414;2024-03-06T13:59:30;10.77;;;5.70;;
39518;SDS011;25200;53.394;10.414;2024-03-06T14:01:56;9.25;;;5.60;;
39518;SDS011;25200;53.394;10.414;2024-03-06T14:04:23;13.50;;;6.07;;
39518;SDS011;25200;53.394;10.414;2024-03-06T14:06:49;11.05;;;5.97;;
39518;SDS011;25200;53.394;10.414;2024-03-06T14:09:15;11.45;;;5.57;;
39518;SDS011;25200;53.394;10.414;2024-03-06T14:11:40;10.23;;;5.60;;
39518;SDS011;25200;53.394;10.414;2024-03-06T14:14:06;9.32;;;5.63;;
39518;SDS011;25200;53.394;10.414;2024-03-06T14:16:33;10.00;;;5.15;;
39518;SDS011;25200;53.394;10.414;2024-03-06T14:18:59;14.05;;;5.82;;
39518;SDS011;25200;53.394;10.414;2024-03-06T14:21:25;9.98;;;5.47;;
39518;SDS011;25200;53.394;10.414;2024-03-06T14:23:50;9.95;;;5.60;;
39518;SDS011;25200;53.394;10.414;2024-03-06T14:26:16;8.68;;;5.22;;
39518;SDS011;25200;53.394;10.414;2024-03-06T14:28:42;12.32;;;5.70;;
39518;SDS011;25200;53.394;10.414;2024-03-06T14:31:07;8.70;;;5.05;;
39518;SDS011;25200;53.394;10.414;2024-03-06T14:33:35;9.18;;;5.25;;
39518;SDS011;25200;53.394;10.414;2024-03-06T14:36:03;9.90;;;5.03;;
39518;SDS011;25200;53.394;10.414;2024-03-06T14:38:28;11.50;;;6.03;;